Time;durP1;ratioP1;P1;durP2;ratioP2;P2;SDS_P1;SDS_P2;PMS_P1;PMS_P2;Temp;Humidity;BMP_temperature;BMP_pressure;BME280_temperature;BME280_humidity;BME280_pressure;Samples;Min_cycle;Max_cycle;Signal;HPM_P1;HPM_P2
2023/01/08 00:01:19;;;;;;;7.32;5.57;;;;;;;17.46;49.92;96075.00;10373366;28;20049;-25
2023/01/08 00:06:24;;;;;;;9.43;5.80;;;;;;;17.42;49.40;96079.22;10370596;28;20076;-26
2023/01/08 00:11:24;;;;;;;6.35;5.13;;;;;;;17.41;49.49;96069.97;10374194;28;20042;-27
2023/01/08 00:16:24;;;;;;;7.27;5.23;;;;;;;17.41;49.25;96071.66;10372499;28;20666;-26
2023/01/08 00:21:25;;;;;;;6.03;4.87;;;;;;;17.39;49.31;96055.63;10371902;28;20499;-24
2023/01/08 00:26:28;;;;;;;5.82;4.70;;;;;;;17.42;49.24;96051.41;10373312;28;20293;-25
2023/01/08 00:31:28;;;;;;;5.30;4.80;;;;;;;17.39;49.59;96043.84;10371847;28;20499;-25
2023/01/08 00:36:30;;;;;;;8.17;5.10;;;;;;;17.43;50.57;96042.97;10369249;28;20124;-26
2023/01/08 00:41:30;;;;;;;17.52;12.00;;;;;;;17.53;62.51;96057.25;10373080;28;20125;-25
2023/01/08 00:46:30;;;;;;;8.57;5.10;;;;;;;17.56;51.99;96036.16;10371335;28;20120;-24
2023/01/08 00:51:31;;;;;;;6.90;5.20;;;;;;;17.52;51.44;96035.31;10368679;28;20038;-26
2023/01/08 00:56:31;;;;;;;6.28;5.45;;;;;;;17.49;51.38;96037.03;10371978;28;20116;-25
2023/01/08 01:01:32;;;;;;;8.10;5.43;;;;;;;17.46;51.32;96026.91;10366357;28;20082;-26
2023/01/08 01:06:32;;;;;;;6.28;5.32;;;;;;;17.45;51.16;96040.41;10368358;28;20296;-26
2023/01/08 01:11:33;;;;;;;7.07;4.23;;;;;;;17.43;50.76;96037.06;10371177;28;20042;-26
2023/01/08 01:16:35;;;;;;;5.03;4.47;;;;;;;17.43;50.48;96037.91;10367160;28;20102;-27
2023/01/08 01:21:35;;;;;;;5.25;4.43;;;;;;;17.43;50.60;96026.94;10361720;28;20025;-26
2023/01/08 01:26:38;;;;;;;6.07;4.53;;;;;;;17.42;50.46;96017.69;10370531;28;20486;-27
2023/01/08 01:31:38;;;;;;;5.68;4.22;;;;;;;17.40;50.20;96011.78;10367118;28;20113;-25
2023/01/08 01:36:39;;;;;;;17.77;9.60;;;;;;;17.52;57.16;95996.50;10375011;28;20084;-25
2023/01/08 01:41:44;;;;;;;12.50;7.60;;;;;;;17.54;57.31;95989.75;10370855;28;20518;-25
2023/01/08 01:46:47;;;;;;;5.53;4.67;;;;;;;17.49;51.97;95977.13;10368732;28;20036;-25
2023/01/08 01:51:52;;;;;;;10.25;4.28;;;;;;;17.45;51.13;95972.09;10366409;28;20446;-25
2023/01/08 01:56:52;;;;;;;5.80;4.15;;;;;;;17.42;50.72;95969.59;10369504;28;20038;-26
2023/01/08 02:01:54;;;;;;;4.93;4.30;;;;;;;17.40;51.07;95961.19;10362456;28;20033;-27
2023/01/08 02:07:24;;;;;;;4.93;3.25;;;;;;;17.40;50.47;95962.00;10379254;28;20046;-24
2023/01/08 02:12:32;;;;;;;3.50;3.05;;;;;;;17.41;50.75;95957.81;10369445;28;20510;-26
2023/01/08 02:17:44;;;;;;;5.57;3.55;;;;;;;17.40;50.62;95953.59;10366723;28;20025;-25
2023/01/08 02:22:50;;;;;;;5.10;3.65;;;;;;;17.38;50.35;95957.81;10374349;28;20448;-26
2023/01/08 02:27:53;;;;;;;3.78;3.22;;;;;;;17.38;50.38;95947.69;10385005;28;20450;-25
2023/01/08 02:32:53;;;;;;;7.97;5.65;;;;;;;17.48;56.00;95959.44;10371984;28;20382;-25
2023/01/08 02:37:54;;;;;;;11.70;7.17;;;;;;;17.53;61.23;95945.03;10381983;28;20033;-25
2023/01/08 02:43:13;;;;;;;6.93;4.90;;;;;;;17.50;53.15;95937.50;10377851;28;20049;-24
2023/01/08 02:48:44;;;;;;;3.88;3.05;;;;;;;17.44;51.91;95928.25;10369593;28;20037;-25
2023/01/08 02:53:49;;;;;;;5.18;3.10;;;;;;;17.41;51.46;95927.44;10373027;28;20046;-26
2023/01/08 02:58:51;;;;;;;3.70;3.13;;;;;;;17.40;51.06;95938.44;10377986;28;20547;-25
2023/01/08 03:03:59;;;;;;;4.72;3.88;;;;;;;17.39;50.58;95949.38;10373297;28;20089;-25
2023/01/08 03:08:59;;;;;;;3.58;3.25;;;;;;;17.38;50.10;95975.53;10375804;28;20410;-25
2023/01/08 03:14:11;;;;;;;4.25;2.63;;;;;;;17.40;50.62;95973.84;10374779;28;20038;-25
2023/01/08 03:19:20;;;;;;;3.95;2.70;;;;;;;17.35;50.05;95978.91;10373121;28;20523;-27
2023/01/08 03:24:28;;;;;;;3.22;2.65;;;;;;;17.37;49.99;95986.50;10395853;28;20413;-26
2023/01/08 03:29:30;;;;;;;3.25;2.90;;;;;;;17.40;51.05;95999.97;10391134;28;20029;-26
2023/01/08 03:34:32;;;;;;;8.32;5.20;;;;;;;17.48;59.47;96015.94;10390107;28;20021;-24
2023/01/08 03:39:55;;;;;;;3.60;3.30;;;;;;;17.43;50.64;96006.72;10395259;28;20025;-25
2023/01/08 03:44:55;;;;;;;3.80;2.63;;;;;;;17.41;50.78;96016.00;10385528;28;20316;-25
2023/01/08 03:50:00;;;;;;;3.20;2.80;;;;;;;17.38;50.44;96010.94;10395159;28;20037;-24
2023/01/08 03:55:00;;;;;;;2.90;2.30;;;;;;;17.35;50.81;95998.28;10389424;28;20519;-27
2023/01/08 04:00:01;;;;;;;2.90;2.33;;;;;;;17.39;50.80;96010.09;10399881;28;20045;-27
2023/01/08 04:05:01;;;;;;;2.75;2.45;;;;;;;17.35;50.58;96008.41;10395441;28;20033;-26
2023/01/08 04:10:02;;;;;;;3.30;2.33;;;;;;;17.35;50.32;96018.53;10387247;28;20047;-26
2023/01/08 04:15:02;;;;;;;3.10;2.45;;;;;;;17.34;50.84;96016.88;10394840;28;20041;-25
2023/01/08 04:20:04;;;;;;;2.53;1.92;;;;;;;17.34;50.72;96001.69;10386477;28;20037;-25
2023/01/08 04:25:04;;;;;;;4.32;2.50;;;;;;;17.34;51.78;95999.97;10393077;28;20124;-25
2023/01/08 04:30:05;;;;;;;6.20;4.55;;;;;;;17.41;58.35;96005.88;10377573;28;20113;-26
2023/01/08 04:35:06;;;;;;;5.88;4.63;;;;;;;17.50;58.94;96013.41;10377709;28;20038;-25
2023/01/08 04:40:09;;;;;;;3.85;3.28;;;;;;;17.48;56.91;96010.88;10381997;28;20391;-26
2023/01/08 04:45:09;;;;;;;4.80;3.33;;;;;;;17.41;55.37;95988.16;10357924;28;20034;-27
2023/01/08 04:50:10;;;;;;;5.68;3.67;;;;;;;17.43;55.05;95977.19;10388840;28;20409;-27
2023/01/08 04:55:10;;;;;;;4.43;3.92;;;;;;;17.44;57.19;95967.91;10383236;28;20041;-27
2023/01/08 05:00:11;;;;;;;5.60;4.00;;;;;;;17.44;57.03;95953.56;10390321;28;20037;-26
2023/01/08 05:05:11;;;;;;;4.43;4.03;;;;;;;17.42;58.08;95936.72;10387794;28;20120;-26
2023/01/08 05:10:12;;;;;;;7.95;4.32;;;;;;;17.42;57.97;95940.06;10380932;28;20041;-26
2023/01/08 05:15:12;;;;;;;6.60;4.37;;;;;;;17.43;57.88;95925.72;10394352;28;20038;-25
2023/01/08 05:20:12;;;;;;;5.40;4.30;;;;;;;17.42;59.24;95919.00;10382670;28;20030;-27
2023/01/08 05:25:13;;;;;;;5.57;4.60;;;;;;;17.41;58.58;95917.31;10390660;28;20397;-24
2023/01/08 05:30:13;;;;;;;7.97;4.70;;;;;;;17.48;59.79;95913.91;10381679;28;20438;-26
2023/01/08 05:35:14;;;;;;;6.35;5.05;;;;;;;17.46;60.04;95905.47;10373939;28;20453;-25
2023/01/08 05:40:14;;;;;;;6.40;4.97;;;;;;;17.48;60.02;95917.25;10390371;28;20034;-25
2023/01/08 05:45:15;;;;;;;7.90;4.57;;;;;;;17.43;59.28;95906.34;10376950;28;20781;-24
2023/01/08 05:50:16;;;;;;;4.82;4.35;;;;;;;17.40;60.19;95921.53;10368494;28;20405;-26
2023/01/08 05:55:19;;;;;;;5.80;4.55;;;;;;;17.42;59.78;95912.22;10388216;28;20039;-27
2023/01/08 06:00:19;;;;;;;6.57;4.35;;;;;;;17.41;58.96;95917.31;10375363;28;20044;-27
2023/01/08 06:05:20;;;;;;;5.40;4.70;;;;;;;17.43;60.07;95900.44;10392980;28;20051;-27
2023/01/08 06:10:20;;;;;;;5.23;4.20;;;;;;;17.41;60.36;95904.69;10380890;28;20041;-26
2023/01/08 06:15:21;;;;;;;5.47;3.83;;;;;;;17.44;59.12;95897.91;10387431;28;20410;-26
2023/01/08 06:20:21;;;;;;;4.88;4.22;;;;;;;17.45;58.19;95896.19;10385831;28;20533;-27
2023/01/08 06:25:21;;;;;;;6.53;4.20;;;;;;;17.49;57.73;95895.31;10390489;28;20093;-27
2023/01/08 06:30:22;;;;;;;5.47;4.50;;;;;;;17.51;59.39;95879.25;10377906;28;20034;-27
2023/01/08 06:35:23;;;;;;;7.23;4.60;;;;;;;17.56;59.62;95886.84;10370614;28;20085;-26
2023/01/08 06:40:23;;;;;;;5.22;4.05;;;;;;;17.58;59.94;95895.25;10384358;28;20050;-27
2023/01/08 06:45:24;;;;;;;8.07;4.65;;;;;;;17.52;59.75;95897.81;10368022;28;20034;-25
2023/01/08 06:50:24;;;;;;;6.63;4.60;;;;;;;17.53;59.39;95907.94;10386061;28;20047;-25
2023/01/08 06:55:25;;;;;;;4.10;3.67;;;;;;;17.55;57.84;95928.16;10380621;28;20041;-26
2023/01/08 07:00:26;;;;;;;5.00;4.20;;;;;;;17.52;58.30;95921.44;10393096;28;20382;-25
2023/01/08 07:05:26;;;;;;;6.45;5.05;;;;;;;17.53;58.80;95937.44;10371647;28;20033;-24
2023/01/08 07:10:26;;;;;;;6.13;4.23;;;;;;;17.50;59.27;95922.31;10357461;28;20046;-25
2023/01/08 07:15:27;;;;;;;4.63;4.07;;;;;;;17.49;58.21;95913.03;10353321;28;20464;-27
2023/01/08 07:20:27;;;;;;;5.50;4.90;;;;;;;17.54;58.78;95923.94;10356028;28;20034;-25
2023/01/08 07:25:27;;;;;;;7.27;5.07;;;;;;;17.56;58.43;95912.13;10357400;28;20168;-25
2023/01/08 07:30:28;;;;;;;5.97;4.57;;;;;;;17.58;59.72;95930.66;10359498;28;20494;-25
2023/01/08 07:35:29;;;;;;;9.20;4.80;;;;;;;17.59;59.73;95922.22;10353285;28;20549;-25
2023/01/08 07:40:30;;;;;;;8.20;5.55;;;;;;;17.63;60.13;95924.72;10386725;28;20041;-26
2023/01/08 07:45:31;;;;;;;7.05;5.72;;;;;;;17.61;59.96;95928.94;10361949;28;20108;-26
2023/01/08 07:50:31;;;;;;;6.15;4.57;;;;;;;17.60;57.87;95934.03;10355776;28;20108;-25
2023/01/08 07:55:32;;;;;;;6.63;5.75;;;;;;;17.60;59.36;95917.16;10358440;28;20065;-25
2023/01/08 08:00:32;;;;;;;7.07;3.60;;;;;;;17.62;57.40;95909.53;10354429;28;20022;-26
2023/01/08 08:05:32;;;;;;;6.17;3.73;;;;;;;17.64;56.58;95897.69;10362419;28;20486;-26
2023/01/08 08:10:33;;;;;;;7.33;3.90;;;;;;;17.63;56.09;95903.59;10373893;28;20445;-26
2023/01/08 08:15:34;;;;;;;26.33;5.17;;;;;;;17.33;58.66;95901.34;10383735;28;20313;-26
2023/01/08 08:20:36;;;;;;;23.73;5.32;;;;;;;17.36;58.46;95901.34;10376404;28;20096;-25
2023/01/08 08:25:36;;;;;;;17.20;5.57;;;;;;;17.20;59.23;95917.44;10389442;28;20032;-25
2023/01/08 08:30:38;;;;;;;12.63;5.33;;;;;;;17.37;57.48;95921.56;10387219;28;20026;-26
2023/01/08 08:35:39;;;;;;;12.90;5.18;;;;;;;17.54;57.34;95923.94;10381462;28;20448;-26
2023/01/08 08:40:41;;;;;;;10.90;5.63;;;;;;;17.43;58.70;95923.22;10375669;28;20037;-24
2023/01/08 08:45:41;;;;;;;16.35;5.75;;;;;;;17.47;59.14;95934.97;10373342;28;20080;-27
2023/01/08 08:50:42;;;;;;;11.90;4.83;;;;;;;17.40;58.74;95935.91;10362860;28;20113;-26
2023/01/08 08:55:42;;;;;;;9.65;5.75;;;;;;;17.35;59.18;95930.00;10363574;28;20025;-25
2023/01/08 09:00:43;;;;;;;7.93;5.90;;;;;;;17.33;58.74;95921.56;10366149;28;20052;-24
2023/01/08 09:05:44;;;;;;;10.05;5.35;;;;;;;17.33;58.69;95919.06;10365686;28;20034;-25
2023/01/08 09:10:44;;;;;;;10.40;5.68;;;;;;;17.35;59.11;95932.50;10380736;28;20043;-26
2023/01/08 09:15:44;;;;;;;10.63;5.93;;;;;;;17.36;59.70;95939.28;10383172;28;20045;-25
2023/01/08 09:20:45;;;;;;;12.03;5.37;;;;;;;17.39;60.10;95944.31;10382930;28;20103;-26
2023/01/08 09:25:45;;;;;;;14.07;5.27;;;;;;;17.36;60.00;95957.84;10387987;28;20125;-26
2023/01/08 09:30:45;;;;;;;10.57;6.10;;;;;;;17.34;60.77;95963.72;10378277;28;20034;-25
2023/01/08 09:35:46;;;;;;;9.83;5.90;;;;;;;17.31;61.56;95958.72;10370864;28;20405;-24
2023/01/08 09:41:00;;;;;;;10.90;6.25;;;;;;;17.28;62.05;95961.25;10361836;28;20525;-24
2023/01/08 09:46:04;;;;;;;8.30;5.93;;;;;;;17.29;61.20;95957.84;10363742;28;20485;-24
2023/01/08 09:51:11;;;;;;;10.60;5.80;;;;;;;17.31;61.03;95958.72;10383142;28;20136;-27
2023/01/08 09:56:16;;;;;;;10.05;6.03;;;;;;;17.22;60.37;95951.16;10378907;28;20124;-25
2023/01/08 10:01:21;;;;;;;8.55;5.72;;;;;;;17.29;61.62;95947.72;10360177;28;20068;-24
2023/01/08 10:06:22;;;;;;;7.15;5.53;;;;;;;17.30;61.18;95939.28;10373478;28;20064;-27
2023/01/08 10:11:27;;;;;;;18.05;5.18;;;;;;;17.37;58.95;95938.44;10385721;28;20048;-25
2023/01/08 10:16:35;;;;;;;28.13;7.80;;;;;;;17.40;59.18;95925.78;10370807;28;20409;-26
2023/01/08 10:21:39;;;;;;;7.00;5.05;;;;;;;17.41;59.20;95912.28;10378442;28;20018;-26
2023/01/08 10:26:39;;;;;;;7.90;4.97;;;;;;;17.42;59.86;95913.94;10375395;28;20449;-26
2023/01/08 10:32:03;;;;;;;6.83;3.30;;;;;;;17.30;58.52;95903.88;10376899;28;20045;-25
2023/01/08 10:37:14;;;;;;;8.13;4.35;;;;;;;17.38;58.91;95899.63;10362671;28;20039;-26
2023/01/08 10:42:19;;;;;;;7.18;3.90;;;;;;;17.35;60.08;95886.97;10360561;28;20042;-27
2023/01/08 10:47:21;;;;;;;5.63;3.70;;;;;;;17.36;60.05;95873.50;10380210;28;20036;-26
2023/01/08 10:52:31;;;;;;;6.55;3.35;;;;;;;17.38;59.38;95851.56;10352158;28;20076;-26
2023/01/08 10:57:33;;;;;;;8.93;4.38;;;;;;;17.37;60.03;95849.88;10371441;28;20123;-26
2023/01/08 11:02:36;;;;;;;5.13;3.63;;;;;;;17.38;60.15;95849.03;10378179;28;20029;-26
2023/01/08 11:07:39;;;;;;;4.13;3.55;;;;;;;17.39;60.04;95822.88;10371865;28;20033;-25
2023/01/08 11:12:40;;;;;;;11.27;3.50;;;;;;;17.40;59.64;95814.44;10375205;28;20382;-26
2023/01/08 11:17:40;;;;;;;5.15;2.97;;;;;;;17.40;59.78;95814.44;10361293;28;20041;-27
2023/01/08 11:22:41;;;;;;;4.90;2.93;;;;;;;17.34;59.86;95796.75;10363184;28;20030;-25
2023/01/08 11:27:43;;;;;;;6.50;3.10;;;;;;;17.35;60.20;95795.91;10373320;28;20501;-26
2023/01/08 11:33:11;;;;;;;5.72;3.30;;;;;;;17.38;59.89;95790.84;10367968;28;20292;-25
2023/01/08 11:38:12;;;;;;;4.68;3.30;;;;;;;17.34;59.42;95782.41;10369990;28;20422;-25
2023/01/08 11:43:21;;;;;;;6.20;3.85;;;;;;;17.36;59.77;95777.38;10377564;28;20041;-27
2023/01/08 11:48:53;;;;;;;6.22;3.42;;;;;;;17.38;59.55;95765.53;10384878;28;20034;-25
2023/01/08 11:54:20;;;;;;;4.90;3.20;;;;;;;17.41;59.56;95747.81;10377303;28;20583;-27
2023/01/08 11:59:33;;;;;;;9.68;3.40;;;;;;;17.33;59.45;95741.97;10374795;28;20042;-26
2023/01/08 12:05:08;;;;;;;5.82;2.80;;;;;;;17.41;59.46;95740.22;10363125;28;20065;-27
2023/01/08 12:10:27;;;;;;;7.30;3.30;;;;;;;17.42;59.83;95734.31;10360553;28;20045;-26
2023/01/08 12:15:46;;;;;;;5.57;3.00;;;;;;;17.40;59.96;95734.31;10362027;28;20047;-25
2023/01/08 12:20:55;;;;;;;3.80;2.40;;;;;;;17.39;60.01;95732.63;10363684;28;20030;-24
2023/01/08 12:26:10;;;;;;;4.22;2.92;;;;;;;17.40;59.71;95725.91;10374453;28;20044;-25
2023/01/08 12:31:36;;;;;;;5.72;2.65;;;;;;;17.39;59.38;95714.94;10379310;28;20571;-26
2023/01/08 12:36:44;;;;;;;7.63;2.80;;;;;;;17.39;59.43;95703.97;10340206;28;20042;-27
2023/01/08 12:41:46;;;;;;;4.22;2.63;;;;;;;17.42;59.56;95711.53;10354101;28;20034;-26
2023/01/08 12:46:49;;;;;;;5.47;2.75;;;;;;;17.38;60.25;95699.75;10361266;28;20038;-26
2023/01/08 12:52:10;;;;;;;4.18;2.55;;;;;;;17.37;60.71;95693.88;10365561;28;20106;-25
2023/01/08 12:57:18;;;;;;;4.65;3.10;;;;;;;17.39;60.09;95692.16;10357871;28;20033;-27
2023/01/08 13:02:48;;;;;;;4.45;2.38;;;;;;;17.41;60.00;95676.97;10354280;28;20062;-26
2023/01/08 13:07:53;;;;;;;4.05;2.35;;;;;;;17.41;60.17;95666.84;10350313;28;20053;-25
2023/01/08 13:12:54;;;;;;;6.18;3.03;;;;;;;17.41;59.60;95656.72;10376964;28;20042;-26
2023/01/08 13:18:25;;;;;;;3.55;2.40;;;;;;;17.42;59.62;95655.88;10383072;28;20301;-25
2023/01/08 13:23:27;;;;;;;4.97;2.55;;;;;;;17.42;59.50;95648.28;10361905;28;20046;-26
2023/01/08 13:28:33;;;;;;;2.90;2.05;;;;;;;17.42;58.58;95621.28;10362354;28;20026;-27
2023/01/08 13:33:34;;;;;;;4.03;2.40;;;;;;;17.45;59.04;95615.34;10362222;28;20037;-27
2023/01/08 13:38:34;;;;;;;4.40;2.13;;;;;;;17.49;57.83;95597.56;10365422;28;20041;-27
2023/01/08 13:43:38;;;;;;;3.78;2.22;;;;;;;17.54;59.21;95592.44;10358476;28;20042;-26
2023/01/08 13:48:48;;;;;;;5.53;2.67;;;;;;;17.51;60.05;95597.56;10367989;28;20029;-27
2023/01/08 13:53:48;;;;;;;5.38;3.00;;;;;;;17.52;61.41;95586.56;10351512;28;20034;-25
2023/01/08 13:58:53;;;;;;;6.93;3.38;;;;;;;17.49;60.92;95581.56;10389535;28;20079;-26
2023/01/08 14:03:53;;;;;;;9.88;3.13;;;;;;;17.51;60.04;95575.59;10373356;28;20033;-27
2023/01/08 14:09:03;;;;;;;6.30;3.50;;;;;;;17.41;60.58;95563.94;10379910;28;20046;-26
2023/01/08 14:14:03;;;;;;;6.95;3.60;;;;;;;17.51;60.44;95564.66;10368745;28;20037;-26
2023/01/08 14:19:04;;;;;;;8.52;4.03;;;;;;;17.49;60.50;95552.03;10361451;28;20042;-27
2023/01/08 14:24:05;;;;;;;7.00;3.35;;;;;;;17.48;60.96;95544.47;10375506;28;20042;-27
2023/01/08 14:29:18;;;;;;;6.28;3.10;;;;;;;17.50;59.06;95535.16;10358697;28;20133;-25
2023/01/08 14:34:24;;;;;;;9.25;3.53;;;;;;;17.56;60.83;95523.25;10353852;28;20025;-28
2023/01/08 14:39:33;;;;;;;5.85;2.58;;;;;;;17.52;58.90;95516.56;10365733;28;20501;-27
2023/01/08 14:44:34;;;;;;;8.00;3.15;;;;;;;17.46;60.42;95515.81;10370379;28;20026;-27
2023/01/08 14:49:39;;;;;;;9.52;2.92;;;;;;;17.54;59.75;95519.06;10383728;28;20037;-27
2023/01/08 14:54:40;;;;;;;14.32;3.22;;;;;;;17.57;61.81;95524.09;10370421;28;20116;-27
2023/01/08 14:59:40;;;;;;;5.97;3.50;;;;;;;17.53;61.79;95522.44;10369200;28;20464;-27
2023/01/08 15:04:41;;;;;;;5.15;2.90;;;;;;;17.54;60.11;95516.53;10361546;28;20288;-26
2023/01/08 15:09:41;;;;;;;5.30;3.23;;;;;;;17.58;59.86;95520.69;10350730;28;20406;-29
2023/01/08 15:14:42;;;;;;;10.30;2.87;;;;;;;17.57;59.63;95508.91;10356351;28;20080;-28
2023/01/08 15:19:50;;;;;;;8.20;3.00;;;;;;;17.55;60.12;95500.47;10357659;28;20128;-27
2023/01/08 15:25:00;;;;;;;6.80;2.85;;;;;;;17.55;60.90;95490.34;10352664;28;20092;-27
2023/01/08 15:30:02;;;;;;;7.97;3.78;;;;;;;17.59;60.03;95476.81;10361539;28;20069;-28
2023/01/08 15:35:14;;;;;;;5.10;2.67;;;;;;;17.59;59.55;95456.56;10363360;28;20494;-27
2023/01/08 15:40:14;;;;;;;4.60;2.78;;;;;;;17.57;60.70;95460.81;10366101;28;20034;-27
2023/01/08 15:45:20;;;;;;;4.40;2.70;;;;;;;17.56;61.29;95462.50;10349955;28;20034;-28
2023/01/08 15:50:23;;;;;;;6.13;2.90;;;;;;;17.55;61.11;95445.66;10350356;28;20034;-27
2023/01/08 15:55:26;;;;;;;5.60;3.20;;;;;;;17.54;61.88;95444.00;10342794;28;20036;-27
2023/01/08 16:00:26;;;;;;;5.72;2.78;;;;;;;17.55;62.33;95439.75;10356769;28;20034;-27
2023/01/08 16:05:28;;;;;;;5.57;2.80;;;;;;;17.55;61.53;95419.50;10345834;28;20080;-27
2023/01/08 16:10:29;;;;;;;8.05;3.28;;;;;;;17.51;61.89;95410.31;10366149;28;20057;-25
2023/01/08 16:15:30;;;;;;;5.25;3.13;;;;;;;17.51;60.84;95402.72;10364024;28;20097;-37
2023/01/08 16:20:30;;;;;;;6.67;2.37;;;;;;;17.51;61.28;95400.19;10349666;28;20027;-26
2023/01/08 16:25:31;;;;;;;4.00;2.43;;;;;;;17.54;60.10;95397.59;10359485;28;20331;-24
2023/01/08 16:30:31;;;;;;;7.75;2.67;;;;;;;17.52;60.56;95386.69;10382247;28;20046;-25
2023/01/08 16:35:31;;;;;;;7.73;3.00;;;;;;;17.57;60.87;95377.31;10390892;28;20525;-24
2023/01/08 16:40:32;;;;;;;4.83;2.53;;;;;;;17.56;61.94;95373.13;10377854;28;20291;-24
2023/01/08 16:45:32;;;;;;;4.73;2.80;;;;;;;17.55;62.18;95373.97;10348200;28;20482;-26
2023/01/08 16:50:32;;;;;;;10.87;2.70;;;;;;;17.55;62.18;95368.91;10346208;28;22048;-25
2023/01/08 16:55:39;;;;;;;7.63;4.00;;;;;;;17.55;62.04;95362.16;10386529;28;20037;-26
2023/01/08 17:00:39;;;;;;;5.20;2.70;;;;;;;17.61;61.78;95356.16;10387261;28;20480;-24
2023/01/08 17:05:39;;;;;;;8.07;3.58;;;;;;;17.62;62.66;95350.22;10360072;28;20045;-25
2023/01/08 17:10:40;;;;;;;14.33;4.57;;;;;;;17.53;62.76;95323.41;10359709;28;20033;-26
2023/01/08 17:15:41;;;;;;;13.82;4.80;;;;;;;17.63;62.39;95332.50;10357269;28;20034;-25
2023/01/08 17:20:41;;;;;;;11.90;4.13;;;;;;;17.64;62.45;95318.13;10363987;28;20038;-26
2023/01/08 17:25:41;;;;;;;8.33;4.07;;;;;;;17.64;61.72;95310.53;10358286;28;20029;-24
2023/01/08 17:30:42;;;;;;;9.37;3.67;;;;;;;17.61;62.44;95290.34;10356778;28;20524;-25
2023/01/08 17:35:43;;;;;;;12.03;4.27;;;;;;;17.67;61.84;95297.84;10358692;28;20040;-26
2023/01/08 17:40:43;;;;;;;14.05;3.85;;;;;;;17.69;62.02;95286.81;10369558;28;20060;-27
2023/01/08 17:45:44;;;;;;;10.60;3.27;;;;;;;17.69;62.97;95279.22;10345929;28;20030;-27
2023/01/08 17:50:44;;;;;;;17.63;5.90;;;;;;;17.64;60.99;95272.56;10347611;28;20044;-27
2023/01/08 17:55:45;;;;;;;10.43;3.63;;;;;;;17.64;61.94;95272.56;10361213;28;20041;-26
2023/01/08 18:00:46;;;;;;;8.90;3.17;;;;;;;17.60;63.25;95271.81;10361235;28;20068;-27
2023/01/08 18:05:46;;;;;;;8.37;3.53;;;;;;;17.62;62.07;95266.72;10362989;28;20049;-26
2023/01/08 18:10:47;;;;;;;9.57;3.30;;;;;;;17.61;63.27;95262.53;10367615;28;20386;-26
2023/01/08 18:15:47;;;;;;;10.05;3.13;;;;;;;17.63;62.00;95255.72;10373689;28;20076;-25
2023/01/08 18:20:52;;;;;;;6.93;3.40;;;;;;;17.61;61.69;95247.34;10360047;28;20037;-26
2023/01/08 18:25:53;;;;;;;10.10;2.55;;;;;;;17.61;62.02;95227.09;10386847;28;20324;-24
2023/01/08 18:30:53;;;;;;;9.33;2.60;;;;;;;17.60;61.35;95240.63;10381563;28;20136;-25
2023/01/08 18:35:53;;;;;;;7.43;2.87;;;;;;;17.59;61.88;95228.81;10369234;28;20300;-25
2023/01/08 18:40:57;;;;;;;8.30;2.93;;;;;;;17.55;61.77;95222.16;10368492;28;20632;-25
2023/01/08 18:46:06;;;;;;;6.25;2.42;;;;;;;17.53;62.87;95214.59;10368568;28;20068;-26
2023/01/08 18:51:06;;;;;;;9.00;2.70;;;;;;;17.51;63.50;95235.75;10368377;28;20038;-27
2023/01/08 18:56:07;;;;;;;7.30;2.60;;;;;;;17.49;63.01;95227.34;10371732;28;20040;-26
2023/01/08 19:01:08;;;;;;;9.30;2.75;;;;;;;17.48;63.18;95233.28;10366478;28;20305;-26
2023/01/08 19:06:13;;;;;;;7.10;2.60;;;;;;;17.50;63.96;95229.00;10365288;28;20041;-24
2023/01/08 19:11:14;;;;;;;4.88;3.08;;;;;;;17.49;64.44;95218.03;10365880;28;20033;-26
2023/01/08 19:16:17;;;;;;;5.07;2.67;;;;;;;17.49;64.03;95224.81;10366720;28;20045;-26
2023/01/08 19:21:18;;;;;;;5.53;2.50;;;;;;;17.48;63.34;95207.97;10355726;28;20324;-26
2023/01/08 19:26:18;;;;;;;2.65;1.77;;;;;;;17.43;63.73;95208.06;10369791;28;20286;-27
2023/01/08 19:31:19;;;;;;;7.03;2.60;;;;;;;17.41;63.96;95188.72;10357975;28;20038;-25
2023/01/08 19:36:19;;;;;;;5.15;1.65;;;;;;;17.40;64.00;95189.59;10368486;28;20308;-27
2023/01/08 19:46:39;;;;;;;7.45;2.67;;;;;;;17.38;63.74;95164.31;10365163;28;20133;-25
2023/01/08 19:51:39;;;;;;;2.60;1.80;;;;;;;17.37;63.55;95156.75;10366086;28;20054;-26
2023/01/08 19:56:40;;;;;;;4.77;2.80;;;;;;;17.39;63.66;95153.31;10363753;28;20030;-24
2023/01/08 20:01:40;;;;;;;3.40;2.20;;;;;;;17.39;63.55;95157.53;10379795;28;20795;-24
2023/01/08 20:06:40;;;;;;;5.97;1.97;;;;;;;17.39;63.94;95155.00;10371422;28;20640;-26
2023/01/08 20:11:40;;;;;;;4.53;1.83;;;;;;;17.41;64.68;95133.88;10372244;28;20091;-25
2023/01/08 20:16:41;;;;;;;3.97;1.90;;;;;;;17.43;65.11;95131.34;10369410;28;20053;-26
2023/01/08 20:21:41;;;;;;;3.70;2.30;;;;;;;17.43;64.05;95122.06;10375110;28;20034;-26
2023/01/08 20:26:43;;;;;;;5.43;2.00;;;;;;;17.38;64.08;95128.06;10375837;28;20038;-26
2023/01/08 20:31:43;;;;;;;3.78;2.03;;;;;;;17.38;64.14;95130.59;10379483;28;20236;-26
2023/01/08 20:36:44;;;;;;;3.53;1.83;;;;;;;17.34;64.16;95127.25;10365655;28;20044;-25
2023/01/08 20:41:45;;;;;;;5.00;2.13;;;;;;;17.36;64.07;95125.59;10381611;28;20037;-26
2023/01/08 20:46:45;;;;;;;3.97;1.80;;;;;;;17.40;63.11;95116.22;10364503;28;20079;-26
2023/01/08 20:51:46;;;;;;;2.07;1.50;;;;;;;17.44;62.85;95108.53;10371747;28;20091;-25
2023/01/08 20:56:46;;;;;;;4.17;2.00;;;;;;;17.46;63.23;95090.78;10373833;28;20041;-26
2023/01/08 21:01:47;;;;;;;2.78;1.60;;;;;;;17.40;63.36;95085.88;10360284;28;20667;-30
2023/01/08 21:06:47;;;;;;;1.77;1.10;;;;;;;17.43;62.14;95079.06;10355713;28;20037;-25
2023/01/08 21:11:48;;;;;;;5.40;1.42;;;;;;;17.46;61.61;95076.44;10376918;28;20044;-26
2023/01/08 21:16:48;;;;;;;4.87;2.00;;;;;;;17.51;63.21;95053.56;10369840;28;20406;-26
2023/01/08 21:21:49;;;;;;;6.03;2.17;;;;;;;17.50;63.52;95056.97;10376197;28;20034;-27
2023/01/08 21:26:49;;;;;;;4.90;1.92;;;;;;;17.54;61.63;95076.28;10365325;28;20046;-25
2023/01/08 21:31:49;;;;;;;2.27;1.67;;;;;;;17.50;61.83;95078.03;10371659;28;20103;-26
2023/01/08 21:36:50;;;;;;;4.83;2.17;;;;;;;17.47;62.58;95077.25;10371613;28;20104;-26
2023/01/08 21:47:15;;;;;;;3.75;1.25;;;;;;;17.45;63.07;95081.53;10375327;28;20068;-27
2023/01/08 21:57:38;;;;;;;2.92;1.42;;;;;;;17.37;63.59;95074.13;10364090;28;20038;-26
2023/01/08 22:02:39;;;;;;;3.72;1.30;;;;;;;17.39;63.14;95043.72;10364205;28;20038;-26
2023/01/08 22:07:39;;;;;;;2.97;1.50;;;;;;;17.39;62.54;95046.25;10386513;28;20473;-25
2023/01/08 22:12:40;;;;;;;2.03;1.40;;;;;;;17.37;63.36;95053.03;10386862;28;20491;-25
2023/01/08 22:17:40;;;;;;;8.20;1.88;;;;;;;17.37;63.43;95050.50;10377196;28;20118;-25
2023/01/08 22:22:44;;;;;;;5.20;0.97;;;;;;;17.45;62.36;95038.53;10387588;28;20029;-25
2023/01/08 22:27:44;;;;;;;1.67;1.30;;;;;;;17.48;62.07;95031.69;10373672;28;20030;-25
2023/01/08 22:32:45;;;;;;;3.07;1.57;;;;;;;17.42;61.95;95023.44;10380874;28;20052;-26
2023/01/08 22:37:46;;;;;;;3.08;1.38;;;;;;;17.41;62.88;95029.34;10370176;28;20323;-26
2023/01/08 22:42:46;;;;;;;5.40;1.67;;;;;;;17.36;62.54;95048.84;10382158;28;20034;-26
2023/01/08 22:47:47;;;;;;;3.10;1.20;;;;;;;17.37;62.88;95045.47;10357284;28;20022;-25
2023/01/08 22:52:47;;;;;;;3.53;1.98;;;;;;;17.35;62.89;95027.78;10372097;28;20072;-27
2023/01/08 22:57:48;;;;;;;3.53;1.70;;;;;;;17.34;62.60;95022.75;10371676;28;20517;-26
2023/01/08 23:02:48;;;;;;;4.00;1.83;;;;;;;17.34;62.88;95015.16;10356845;28;20029;-24
2023/01/08 23:07:48;;;;;;;2.40;1.20;;;;;;;17.34;62.90;95028.59;10370133;28;20056;-25
2023/01/08 23:12:50;;;;;;;4.20;1.63;;;;;;;17.33;62.95;95018.56;10383973;28;20132;-26
2023/01/08 23:17:50;;;;;;;2.55;1.20;;;;;;;17.34;62.91;95032.84;10382409;28;20043;-24
2023/01/08 23:22:51;;;;;;;2.95;1.45;;;;;;;17.33;62.70;95044.66;10383668;28;20405;-25
2023/01/08 23:27:51;;;;;;;3.50;1.47;;;;;;;17.40;62.00;95051.28;10377886;28;20054;-26
2023/01/08 23:32:51;;;;;;;1.83;1.23;;;;;;;17.42;62.41;95031.84;10384054;28;20460;-26
2023/01/08 23:37:52;;;;;;;2.53;1.40;;;;;;;17.44;61.37;95027.59;10386436;28;20120;-25
2023/01/08 23:42:52;;;;;;;1.73;1.10;;;;;;;17.38;61.99;95042.91;10391286;28;20027;-25